Time;durP1;ratioP1;P1;durP2;ratioP2;P2;SDS_P1;SDS_P2;PMS_P1;PMS_P2;Temp;Humidity;BMP_temperature;BMP_pressure;BME280_temperature;BME280_humidity;BME280_pressure;Samples;Min_cycle;Max_cycle;Signal;HPM_P1;HPM_P2
2022/11/27 00:01:28;;;;;;;16.45;4.15;;;6.00;99.90;;;;;;5039531;28;20029;-92
2022/11/27 00:03:55;;;;;;;17.50;4.28;;;6.00;99.90;;;;;;5040837;28;20053;-92
2022/11/27 00:06:23;;;;;;;23.45;5.43;;;6.00;99.90;;;;;;5040143;28;20188;-93
2022/11/27 00:08:48;;;;;;;22.13;4.97;;;6.00;99.90;;;;;;5057732;28;20025;-92
2022/11/27 00:11:20;;;;;;;18.35;4.68;;;6.00;99.90;;;;;;5056159;28;20110;-93
2022/11/27 00:13:46;;;;;;;18.38;4.47;;;6.00;99.90;;;;;;5023752;28;20025;-92
2022/11/27 00:16:13;;;;;;;19.25;5.05;;;6.00;99.90;;;;;;5058643;28;20020;-92
2022/11/27 00:18:39;;;;;;;20.00;5.03;;;6.00;99.90;;;;;;5059510;28;20025;-93
2022/11/27 00:21:07;;;;;;;20.92;5.07;;;6.00;99.90;;;;;;5040662;28;20029;-93
2022/11/27 00:23:34;;;;;;;21.25;5.28;;;6.00;99.90;;;;;;5038947;28;20486;-92
2022/11/27 00:25:59;;;;;;;17.30;5.43;;;6.00;99.90;;;;;;5040742;28;20033;-93
2022/11/27 00:28:25;;;;;;;18.25;6.07;;;6.00;99.90;;;;;;5040888;28;20021;-92
2022/11/27 00:30:50;;;;;;;15.43;4.85;;;6.00;99.90;;;;;;5041245;28;20037;-93
2022/11/27 00:33:16;;;;;;;14.70;4.70;;;5.90;99.90;;;;;;5040972;28;20021;-92
2022/11/27 00:35:42;;;;;;;13.68;4.72;;;5.90;99.90;;;;;;5042361;28;20036;-93
2022/11/27 00:38:07;;;;;;;13.18;4.60;;;6.00;99.90;;;;;;5036590;28;20065;-92
2022/11/27 00:40:33;;;;;;;15.55;5.43;;;6.00;99.90;;;;;;5025951;28;20029;-91
2022/11/27 00:43:00;;;;;;;18.95;5.13;;;5.90;99.90;;;;;;5032051;28;20060;-91
2022/11/27 00:45:26;;;;;;;16.23;5.03;;;5.90;99.90;;;;;;5037790;28;20053;-92
2022/11/27 00:47:51;;;;;;;16.48;5.40;;;5.90;99.90;;;;;;5024256;28;20078;-93
2022/11/27 00:50:17;;;;;;;18.98;5.45;;;5.80;99.90;;;;;;5030888;28;20030;-93
2022/11/27 00:52:43;;;;;;;17.15;4.70;;;5.80;99.90;;;;;;5017570;28;20120;-93
2022/11/27 00:55:08;;;;;;;16.80;5.40;;;5.80;99.90;;;;;;5019369;28;20426;-92
2022/11/27 00:57:34;;;;;;;17.35;5.07;;;5.80;99.90;;;;;;5024762;28;20043;-92
2022/11/27 00:59:59;;;;;;;14.13;5.00;;;5.70;99.90;;;;;;5020980;28;20735;-93
2022/11/27 01:02:25;;;;;;;13.10;4.50;;;5.70;99.90;;;;;;5025171;28;20029;-92
2022/11/27 01:04:50;;;;;;;11.90;4.25;;;5.60;99.90;;;;;;5017675;28;20036;-93
2022/11/27 01:07:16;;;;;;;17.58;5.18;;;5.60;99.90;;;;;;5037073;28;20022;-93
2022/11/27 01:09:42;;;;;;;12.68;4.68;;;5.60;99.90;;;;;;5012443;28;20074;-93
2022/11/27 01:12:07;;;;;;;28.05;6.63;;;5.50;99.90;;;;;;5010092;28;20037;-92
2022/11/27 01:14:33;;;;;;;19.85;5.65;;;5.50;99.90;;;;;;5019089;28;20037;-92
2022/11/27 01:16:59;;;;;;;20.70;5.80;;;5.40;99.90;;;;;;5021096;28;20026;-92
2022/11/27 01:19:25;;;;;;;18.10;6.50;;;5.40;99.90;;;;;;5020506;28;20076;-92
2022/11/27 01:21:50;;;;;;;21.48;6.20;;;5.30;99.90;;;;;;5028675;28;20108;-92
2022/11/27 01:24:16;;;;;;;22.67;5.90;;;5.30;99.90;;;;;;5015648;28;20135;-93
2022/11/27 01:26:42;;;;;;;21.30;5.53;;;5.20;99.90;;;;;;5019211;28;20052;-92
2022/11/27 01:29:08;;;;;;;15.60;5.35;;;5.20;99.90;;;;;;5022046;28;20022;-93
2022/11/27 01:31:34;;;;;;;18.10;5.13;;;5.10;99.90;;;;;;5008369;28;20048;-92
2022/11/27 01:34:03;;;;;;;15.10;5.45;;;5.10;99.90;;;;;;5018990;28;20025;-92
2022/11/27 01:36:30;;;;;;;15.77;4.75;;;5.10;99.90;;;;;;5019930;28;20025;-92
2022/11/27 01:38:56;;;;;;;19.13;5.35;;;5.00;99.90;;;;;;5018987;28;20042;-92
2022/11/27 01:41:31;;;;;;;15.73;5.35;;;5.00;99.90;;;;;;5028073;28;20044;-92
2022/11/27 01:43:59;;;;;;;19.55;5.53;;;5.00;99.90;;;;;;5019493;28;20032;-92
2022/11/27 01:46:45;;;;;;;14.13;5.55;;;5.00;99.90;;;;;;5019270;28;20025;-92
2022/11/27 01:49:10;;;;;;;18.67;6.70;;;4.90;99.90;;;;;;5032253;28;20060;-92
2022/11/27 01:51:56;;;;;;;19.38;5.30;;;4.90;99.90;;;;;;5020025;28;20037;-93
2022/11/27 01:54:25;;;;;;;15.63;4.78;;;4.90;99.90;;;;;;5019163;28;20029;-92
2022/11/27 01:56:55;;;;;;;14.20;5.22;;;4.90;99.90;;;;;;5024926;28;20036;-93
2022/11/27 01:59:22;;;;;;;17.02;5.47;;;4.90;99.90;;;;;;5012725;28;20394;-93
2022/11/27 02:01:48;;;;;;;21.20;5.50;;;4.90;99.90;;;;;;5028863;28;20088;-92
2022/11/27 02:04:13;;;;;;;16.70;5.28;;;4.90;99.90;;;;;;5020103;28;20045;-93
2022/11/27 02:06:39;;;;;;;15.82;5.18;;;4.90;99.90;;;;;;5017142;28;20452;-92
2022/11/27 02:09:05;;;;;;;15.32;5.22;;;5.00;99.90;;;;;;5012584;28;20037;-93
2022/11/27 02:11:55;;;;;;;13.68;5.35;;;5.00;99.90;;;;;;5034032;28;20038;-92
2022/11/27 02:14:37;;;;;;;14.60;5.40;;;5.00;99.90;;;;;;4996521;28;20026;-92
2022/11/27 02:17:28;;;;;;;19.05;5.07;;;5.00;99.90;;;;;;5030276;28;20820;-92
2022/11/27 02:20:26;;;;;;;12.85;5.03;;;5.00;99.90;;;;;;5016045;28;20056;-92
2022/11/27 02:23:33;;;;;;;22.70;5.55;;;5.00;99.90;;;;;;5030019;28;20506;-92
2022/11/27 02:26:19;;;;;;;15.45;5.50;;;5.00;99.90;;;;;;5034748;28;20061;-92
2022/11/27 02:29:08;;;;;;;16.45;6.25;;;5.00;99.90;;;;;;5035909;28;20029;-92
2022/11/27 02:31:39;;;;;;;19.15;5.63;;;5.00;99.90;;;;;;5010375;28;20107;-93
2022/11/27 02:34:24;;;;;;;17.10;5.60;;;4.90;99.90;;;;;;5032590;28;20057;-92
2022/11/27 02:36:59;;;;;;;14.23;5.57;;;5.00;99.90;;;;;;5024575;28;20034;-91
2022/11/27 02:39:33;;;;;;;13.25;5.65;;;4.90;99.90;;;;;;5034671;28;20045;-92
2022/11/27 02:42:10;;;;;;;17.75;5.63;;;4.90;99.90;;;;;;5034109;28;20040;-92
2022/11/27 02:44:44;;;;;;;19.85;5.63;;;4.90;99.90;;;;;;5027015;28;20025;-93
2022/11/27 02:47:11;;;;;;;14.77;5.50;;;4.90;99.90;;;;;;5033477;28;20033;-92
2022/11/27 02:49:39;;;;;;;19.20;6.90;;;4.90;99.90;;;;;;5037535;28;20445;-93
2022/11/27 02:52:05;;;;;;;20.20;6.10;;;4.90;99.90;;;;;;5036213;28;20049;-94
2022/11/27 02:54:32;;;;;;;21.05;5.20;;;4.90;99.90;;;;;;5023302;28;20021;-92
2022/11/27 02:57:02;;;;;;;17.55;5.78;;;4.90;99.90;;;;;;5033953;28;20032;-94
2022/11/27 02:59:32;;;;;;;17.00;5.68;;;4.90;99.90;;;;;;5018526;28;20029;-93
2022/11/27 03:02:04;;;;;;;18.35;6.20;;;4.80;99.90;;;;;;5023341;28;20064;-93
2022/11/27 03:04:36;;;;;;;16.17;5.70;;;4.90;99.90;;;;;;5019404;28;20083;-92
2022/11/27 03:07:08;;;;;;;18.15;5.35;;;4.90;99.90;;;;;;5023130;28;20491;-91
2022/11/27 03:09:41;;;;;;;14.77;5.72;;;4.90;99.90;;;;;;5025740;28;20167;-93
2022/11/27 03:12:08;;;;;;;13.02;4.93;;;5.00;99.90;;;;;;5019324;28;20046;-93
2022/11/27 03:14:36;;;;;;;19.25;5.32;;;5.00;99.90;;;;;;5014883;28;20030;-93
2022/11/27 03:17:39;;;;;;;13.35;4.72;;;5.00;99.90;;;;;;5016992;28;20033;-92
2022/11/27 03:20:20;;;;;;;15.40;5.60;;;5.10;99.90;;;;;;5012348;28;20094;-92
2022/11/27 03:22:45;;;;;;;15.75;6.35;;;5.10;99.90;;;;;;5027352;28;20068;-93
2022/11/27 03:25:11;;;;;;;13.27;5.00;;;5.10;99.90;;;;;;5019296;28;20028;-91
2022/11/27 03:27:48;;;;;;;16.13;5.18;;;5.10;99.90;;;;;;5014726;28;20026;-92
2022/11/27 03:30:15;;;;;;;13.48;4.57;;;5.20;99.90;;;;;;5003268;28;20028;-92
2022/11/27 03:32:40;;;;;;;16.30;4.75;;;5.10;99.90;;;;;;5022611;28;20025;-92
2022/11/27 03:35:09;;;;;;;15.55;5.53;;;5.10;99.90;;;;;;5022136;28;20036;-93
2022/11/27 03:37:36;;;;;;;9.43;4.32;;;5.20;99.90;;;;;;5025630;28;20034;-92
2022/11/27 03:40:03;;;;;;;13.65;4.72;;;5.20;99.90;;;;;;5023314;28;20041;-93
2022/11/27 03:42:42;;;;;;;14.27;4.47;;;5.20;99.90;;;;;;5008733;28;20031;-93
2022/11/27 03:45:28;;;;;;;16.02;4.32;;;5.20;99.90;;;;;;5023106;28;20026;-93
2022/11/27 03:48:25;;;;;;;10.93;3.75;;;5.30;99.90;;;;;;5016893;28;20038;-92
2022/11/27 03:51:09;;;;;;;14.93;3.42;;;5.30;99.90;;;;;;5019472;28;20033;-93
2022/11/27 03:54:01;;;;;;;17.00;4.85;;;5.30;99.90;;;;;;5012528;28;20546;-93
2022/11/27 03:56:42;;;;;;;10.73;3.65;;;5.30;99.90;;;;;;5029635;28;20029;-92
2022/11/27 03:59:15;;;;;;;14.30;4.22;;;5.30;99.90;;;;;;5024190;28;20026;-92
2022/11/27 04:01:41;;;;;;;16.63;4.38;;;5.30;99.90;;;;;;5029332;28;20055;-93
2022/11/27 04:04:07;;;;;;;14.90;4.22;;;5.40;99.90;;;;;;5021898;28;20025;-93
2022/11/27 04:06:32;;;;;;;14.50;3.72;;;5.40;99.90;;;;;;5006854;28;20033;-92
2022/11/27 04:08:58;;;;;;;16.08;4.57;;;5.40;99.90;;;;;;5033479;28;20052;-92
2022/11/27 04:11:23;;;;;;;8.73;3.00;;;5.40;99.90;;;;;;5023280;28;20095;-92
2022/11/27 04:13:51;;;;;;;14.23;4.38;;;5.40;99.90;;;;;;5023916;28;20060;-93
2022/11/27 04:16:17;;;;;;;16.20;4.00;;;5.40;99.90;;;;;;5021453;28;20028;-93
2022/11/27 04:18:43;;;;;;;14.68;4.80;;;5.40;99.90;;;;;;5042495;28;20036;-92
2022/11/27 04:21:08;;;;;;;8.98;3.67;;;5.40;99.90;;;;;;5031739;28;20022;-92
2022/11/27 04:23:36;;;;;;;14.98;3.97;;;5.50;99.90;;;;;;5012226;28;20517;-93
2022/11/27 04:26:02;;;;;;;14.18;3.70;;;5.50;99.90;;;;;;5016176;28;20044;-92
2022/11/27 04:28:27;;;;;;;9.77;2.92;;;5.50;99.90;;;;;;5022556;28;20071;-93
2022/11/27 04:30:53;;;;;;;10.05;3.60;;;5.50;99.90;;;;;;5041558;28;20041;-94
2022/11/27 04:33:19;;;;;;;14.40;3.92;;;5.50;99.90;;;;;;5020095;28;20025;-92
2022/11/27 04:35:45;;;;;;;10.07;3.40;;;5.50;99.90;;;;;;5021230;28;20036;-94
2022/11/27 04:38:11;;;;;;;9.82;2.88;;;5.50;99.90;;;;;;5019552;28;20038;-93
2022/11/27 04:40:36;;;;;;;12.13;3.00;;;5.50;99.90;;;;;;5019729;28;20037;-92
2022/11/27 04:43:02;;;;;;;11.55;3.00;;;5.60;99.90;;;;;;5011523;28;20022;-92
2022/11/27 04:45:27;;;;;;;11.32;3.17;;;5.60;99.90;;;;;;5021059;28;20415;-92
2022/11/27 04:47:53;;;;;;;9.98;3.20;;;5.60;99.90;;;;;;5021283;28;20006;-93
2022/11/27 04:50:18;;;;;;;12.50;3.33;;;5.60;99.90;;;;;;5029609;28;20026;-94
2022/11/27 04:52:44;;;;;;;9.15;2.63;;;5.60;99.90;;;;;;5019910;28;20037;-92
2022/11/27 04:55:09;;;;;;;7.28;2.75;;;5.60;99.90;;;;;;5020853;28;20071;-93
2022/11/27 04:57:35;;;;;;;11.30;2.92;;;5.70;99.90;;;;;;5014119;28;20025;-93
2022/11/27 05:00:01;;;;;;;11.98;2.92;;;5.70;99.90;;;;;;5022002;28;20036;-93
2022/11/27 05:02:27;;;;;;;17.70;3.13;;;5.60;99.90;;;;;;5021372;28;20052;-92
2022/11/27 05:04:52;;;;;;;12.55;3.20;;;5.70;99.90;;;;;;5020677;28;20032;-93
2022/11/27 05:07:18;;;;;;;9.57;2.90;;;5.60;99.90;;;;;;5019755;28;20084;-92
2022/11/27 05:09:43;;;;;;;9.68;2.08;;;5.70;99.90;;;;;;5015824;28;20509;-93
2022/11/27 05:12:09;;;;;;;14.13;3.08;;;5.70;99.90;;;;;;5021390;28;20525;-93
2022/11/27 05:14:34;;;;;;;6.85;2.63;;;5.70;99.90;;;;;;5018258;28;20021;-93
2022/11/27 05:17:00;;;;;;;10.63;2.38;;;5.70;99.90;;;;;;5015719;28;20078;-94
2022/11/27 05:19:28;;;;;;;11.73;3.25;;;5.70;99.90;;;;;;5021172;28;20043;-94
2022/11/27 05:21:54;;;;;;;7.35;2.85;;;5.70;99.90;;;;;;5005627;28;20034;-94
2022/11/27 05:24:22;;;;;;;6.15;2.38;;;5.70;99.90;;;;;;5020505;28;20372;-93
2022/11/27 05:26:47;;;;;;;10.88;3.15;;;5.70;99.90;;;;;;5022617;28;20030;-93
2022/11/27 05:29:14;;;;;;;10.40;3.60;;;5.70;99.90;;;;;;5020852;28;20087;-93
2022/11/27 05:31:39;;;;;;;11.10;3.22;;;5.70;99.90;;;;;;5021215;28;20446;-93
2022/11/27 05:34:06;;;;;;;10.43;3.17;;;5.80;99.90;;;;;;5019575;28;20117;-94
2022/11/27 05:36:32;;;;;;;18.42;4.22;;;5.70;99.90;;;;;;5016459;28;20037;-93
2022/11/27 05:38:59;;;;;;;12.07;3.67;;;5.70;99.90;;;;;;5012304;28;20473;-93
2022/11/27 05:41:24;;;;;;;15.18;3.10;;;5.70;99.90;;;;;;5036070;28;20025;-93
2022/11/27 05:43:50;;;;;;;10.88;3.65;;;5.80;99.90;;;;;;5034425;28;20140;-92
2022/11/27 05:46:18;;;;;;;12.00;4.07;;;5.80;99.90;;;;;;5029076;28;20043;-94
2022/11/27 05:48:44;;;;;;;14.02;3.70;;;5.80;99.90;;;;;;5041444;28;20021;-92
2022/11/27 05:51:09;;;;;;;11.52;3.10;;;5.80;99.90;;;;;;5038577;28;20063;-92
2022/11/27 05:53:35;;;;;;;13.13;3.88;;;5.80;99.90;;;;;;5035081;28;20036;-94
2022/11/27 05:56:11;;;;;;;12.07;3.58;;;5.80;99.90;;;;;;5034119;28;20029;-93
2022/11/27 05:58:39;;;;;;;10.52;4.25;;;5.80;99.90;;;;;;5037496;28;20060;-94
2022/11/27 06:01:06;;;;;;;10.85;4.15;;;5.80;99.90;;;;;;5039812;28;20036;-92
2022/11/27 06:03:31;;;;;;;15.57;4.00;;;5.90;99.90;;;;;;5038286;28;20390;-92
2022/11/27 06:05:57;;;;;;;11.38;3.92;;;5.80;99.90;;;;;;5036004;28;20021;-94
2022/11/27 06:08:23;;;;;;;12.85;4.15;;;5.90;99.90;;;;;;5038520;28;20037;-92
2022/11/27 06:10:49;;;;;;;9.70;3.88;;;5.90;99.90;;;;;;5040174;28;20032;-93
2022/11/27 06:13:14;;;;;;;9.60;3.78;;;5.90;99.90;;;;;;5036319;28;20068;-93
2022/11/27 06:15:40;;;;;;;16.73;4.00;;;5.90;99.90;;;;;;5054218;28;20036;-93
2022/11/27 06:18:07;;;;;;;14.80;4.18;;;5.90;99.90;;;;;;5037543;28;20025;-92
2022/11/27 06:20:32;;;;;;;8.07;3.35;;;6.00;99.90;;;;;;5028675;28;20034;-93
2022/11/27 06:22:58;;;;;;;8.27;3.78;;;6.00;99.90;;;;;;5030263;28;20026;-92
2022/11/27 06:25:25;;;;;;;14.20;4.50;;;6.00;99.90;;;;;;5033247;28;20025;-93
2022/11/27 06:27:50;;;;;;;11.65;4.30;;;6.00;99.90;;;;;;5039229;28;20036;-93
2022/11/27 06:30:16;;;;;;;14.27;3.95;;;6.00;99.90;;;;;;5036516;28;20040;-93
2022/11/27 06:32:43;;;;;;;14.63;4.57;;;6.00;99.90;;;;;;5051317;28;20027;-93
2022/11/27 06:35:08;;;;;;;17.52;5.53;;;6.00;99.90;;;;;;5025322;28;20028;-93
2022/11/27 06:37:34;;;;;;;9.60;4.00;;;6.00;99.90;;;;;;5041636;28;20025;-94
2022/11/27 06:40:00;;;;;;;13.55;4.60;;;6.00;99.90;;;;;;5039750;28;20452;-92
2022/11/27 06:42:28;;;;;;;13.25;5.18;;;6.00;99.90;;;;;;5039895;28;20438;-93
2022/11/27 06:44:54;;;;;;;11.50;4.05;;;6.00;99.90;;;;;;5035770;28;20048;-93
2022/11/27 06:47:20;;;;;;;13.02;4.38;;;6.00;99.90;;;;;;5036302;28;20487;-93
2022/11/27 06:49:45;;;;;;;16.45;5.35;;;6.00;99.90;;;;;;5026808;28;20474;-94
2022/11/27 06:52:11;;;;;;;11.75;5.13;;;6.00;99.90;;;;;;5037799;28;20088;-92
2022/11/27 06:54:36;;;;;;;11.30;4.90;;;6.00;99.90;;;;;;5032143;28;20028;-93
2022/11/27 06:57:02;;;;;;;15.02;4.85;;;6.00;99.90;;;;;;5039467;28;20429;-93
2022/11/27 06:59:28;;;;;;;12.82;4.88;;;6.10;99.90;;;;;;5038999;28;20025;-94
2022/11/27 07:01:54;;;;;;;11.50;4.70;;;6.00;99.90;;;;;;5036603;28;20435;-94
2022/11/27 07:04:19;;;;;;;16.00;4.85;;;6.00;99.90;;;;;;5040083;28;20021;-93
2022/11/27 07:06:45;;;;;;;13.95;6.10;;;6.00;99.90;;;;;;5039797;28;20029;-92
2022/11/27 07:09:10;;;;;;;12.93;5.13;;;6.10;99.90;;;;;;5039709;28;20120;-92
2022/11/27 07:11:38;;;;;;;15.10;4.97;;;6.10;99.90;;;;;;5040810;28;20446;-94
2022/11/27 07:14:04;;;;;;;13.45;4.45;;;6.10;99.90;;;;;;5038839;28;20045;-93
2022/11/27 07:16:32;;;;;;;14.93;5.45;;;6.10;99.90;;;;;;5031334;28;20025;-94
2022/11/27 07:19:00;;;;;;;12.65;4.68;;;6.10;99.90;;;;;;5041171;28;20027;-93
2022/11/27 07:21:26;;;;;;;14.98;5.07;;;6.10;99.90;;;;;;5055925;28;20025;-93
2022/11/27 07:23:52;;;;;;;16.83;5.63;;;6.10;99.90;;;;;;5036754;28;20017;-92
2022/11/27 07:26:20;;;;;;;14.27;6.20;;;6.10;99.90;;;;;;5039044;28;20031;-93
2022/11/27 07:28:46;;;;;;;12.88;5.18;;;6.10;99.90;;;;;;5049284;28;20034;-92
2022/11/27 07:31:14;;;;;;;13.18;5.82;;;6.10;99.90;;;;;;5040490;28;20110;-93
2022/11/27 07:33:40;;;;;;;15.75;5.53;;;6.10;99.90;;;;;;5040019;28;20025;-91
2022/11/27 07:36:11;;;;;;;18.50;5.32;;;6.10;99.90;;;;;;5034024;28;20117;-92
2022/11/27 07:38:37;;;;;;;15.60;5.85;;;6.10;99.90;;;;;;5036787;28;20053;-93
2022/11/27 07:41:03;;;;;;;13.80;5.82;;;6.10;99.90;;;;;;5032334;28;20033;-91
2022/11/27 07:43:30;;;;;;;16.42;6.05;;;6.10;99.90;;;;;;5040690;28;20526;-91
2022/11/27 07:45:56;;;;;;;16.58;5.82;;;6.10;99.90;;;;;;5039029;28;20504;-91
2022/11/27 07:48:22;;;;;;;14.07;5.65;;;6.10;99.90;;;;;;5037138;28;20037;-91
2022/11/27 07:50:48;;;;;;;16.10;5.15;;;6.10;99.90;;;;;;5040850;28;20025;-91
2022/11/27 07:53:14;;;;;;;12.20;5.72;;;6.20;99.90;;;;;;5035331;28;20100;-91
2022/11/27 07:55:40;;;;;;;12.30;5.47;;;6.20;99.90;;;;;;5033406;28;20025;-90
2022/11/27 07:58:07;;;;;;;18.08;6.85;;;6.10;99.90;;;;;;5031364;28;20026;-92
2022/11/27 08:00:34;;;;;;;13.48;4.70;;;6.10;99.90;;;;;;5029058;28;20061;-91
2022/11/27 08:03:00;;;;;;;13.60;5.25;;;6.10;99.90;;;;;;5039885;28;20079;-92
2022/11/27 08:05:27;;;;;;;12.75;5.25;;;6.10;99.90;;;;;;5058111;28;20033;-92
2022/11/27 08:07:52;;;;;;;16.90;5.97;;;6.10;99.90;;;;;;5019233;28;20583;-91
2022/11/27 08:10:18;;;;;;;16.08;6.38;;;6.20;99.90;;;;;;5040016;28;20090;-91
2022/11/27 08:12:44;;;;;;;13.57;6.43;;;6.20;99.90;;;;;;5057330;28;20398;-91
2022/11/27 08:15:09;;;;;;;13.60;5.07;;;6.20;99.90;;;;;;5041337;28;20025;-90
2022/11/27 08:17:35;;;;;;;16.98;5.93;;;6.20;99.90;;;;;;5041296;28;20043;-90
2022/11/27 08:20:01;;;;;;;15.38;6.47;;;6.10;99.90;;;;;;5042991;28;20101;-91
2022/11/27 08:22:27;;;;;;;14.27;6.07;;;6.20;99.90;;;;;;5037854;28;20391;-92
2022/11/27 08:24:52;;;;;;;18.20;6.88;;;6.20;99.90;;;;;;5036436;28;20039;-91
2022/11/27 08:27:18;;;;;;;14.98;6.43;;;6.10;99.90;;;;;;5041843;28;20082;-91
2022/11/27 08:29:43;;;;;;;14.30;6.65;;;6.20;99.90;;;;;;5041627;28;20164;-91
2022/11/27 08:32:09;;;;;;;19.55;6.55;;;6.10;99.90;;;;;;5059887;28;20036;-90
2022/11/27 08:34:36;;;;;;;18.00;7.20;;;6.10;99.90;;;;;;5042626;28;20205;-91
2022/11/27 08:37:03;;;;;;;14.18;7.18;;;6.10;99.90;;;;;;5041089;28;20099;-91
2022/11/27 08:39:29;;;;;;;18.55;6.78;;;6.10;99.90;;;;;;5036085;28;20042;-90
2022/11/27 08:41:55;;;;;;;17.55;7.68;;;6.10;99.90;;;;;;5036646;28;20055;-91
2022/11/27 08:44:20;;;;;;;16.38;6.65;;;6.20;99.90;;;;;;5039410;28;20048;-91
2022/11/27 08:46:49;;;;;;;17.50;7.18;;;6.20;99.90;;;;;;5037904;28;20017;-91
2022/11/27 08:49:15;;;;;;;16.27;6.90;;;6.20;99.90;;;;;;5039807;28;20029;-91
2022/11/27 08:51:40;;;;;;;13.05;6.78;;;6.20;99.90;;;;;;5038383;28;20372;-90
2022/11/27 08:54:06;;;;;;;18.83;7.35;;;6.30;99.90;;;;;;5036147;28;20017;-91
2022/11/27 08:56:32;;;;;;;15.27;7.03;;;6.30;99.90;;;;;;5038581;28;20033;-90
2022/11/27 08:58:57;;;;;;;16.83;6.85;;;6.20;99.90;;;;;;5042836;28;20021;-90
2022/11/27 09:01:26;;;;;;;19.10;6.78;;;6.30;99.90;;;;;;5038065;28;20063;-90
2022/11/27 09:03:53;;;;;;;16.05;7.15;;;6.40;99.90;;;;;;5031229;28;20025;-91
2022/11/27 09:06:24;;;;;;;15.70;6.28;;;6.30;99.90;;;;;;5023845;28;20029;-90
2022/11/27 09:08:50;;;;;;;19.20;6.95;;;6.40;99.90;;;;;;5030014;28;20512;-90
2022/11/27 09:11:19;;;;;;;12.50;6.80;;;6.40;99.90;;;;;;5036424;28;20402;-91
2022/11/27 09:13:45;;;;;;;14.68;6.68;;;6.50;99.90;;;;;;5034640;28;20115;-90
2022/11/27 09:16:14;;;;;;;14.00;6.70;;;6.50;99.90;;;;;;5035730;28;20029;-90
2022/11/27 09:18:43;;;;;;;18.52;7.25;;;6.50;99.90;;;;;;5035684;28;20024;-90
2022/11/27 09:21:11;;;;;;;15.77;7.10;;;6.50;99.90;;;;;;5025510;28;20021;-89
2022/11/27 09:23:38;;;;;;;13.40;6.68;;;6.60;99.90;;;;;;5024115;28;20541;-90
2022/11/27 09:26:06;;;;;;;15.02;6.50;;;6.60;99.90;;;;;;5039036;28;20072;-90
2022/11/27 09:28:36;;;;;;;17.42;6.82;;;6.60;99.90;;;;;;5035634;28;20035;-90
2022/11/27 09:31:04;;;;;;;18.27;7.15;;;6.60;99.90;;;;;;5042357;28;20045;-91
2022/11/27 09:33:45;;;;;;;18.25;6.53;;;6.70;99.90;;;;;;5032788;28;20033;-89
2022/11/27 09:36:18;;;;;;;15.40;6.50;;;6.60;99.90;;;;;;5029231;28;20045;-91
2022/11/27 09:38:47;;;;;;;12.55;6.13;;;6.70;99.90;;;;;;5023065;28;20045;-90
2022/11/27 09:41:38;;;;;;;13.43;7.03;;;6.70;99.90;;;;;;5033425;28;20033;-90
2022/11/27 09:44:24;;;;;;;18.85;6.22;;;6.70;99.90;;;;;;5036011;28;20035;-90
2022/11/27 09:46:51;;;;;;;15.65;6.60;;;6.70;99.90;;;;;;5022199;28;20060;-90
2022/11/27 09:49:32;;;;;;;15.45;6.97;;;6.70;99.90;;;;;;5019045;28;20032;-90
2022/11/27 09:52:06;;;;;;;12.52;6.68;;;6.80;99.90;;;;;;5034795;28;20051;-90
2022/11/27 09:54:53;;;;;;;15.30;6.75;;;6.80;99.90;;;;;;5036705;28;20024;-90
2022/11/27 09:57:29;;;;;;;16.90;7.75;;;6.80;99.90;;;;;;5045171;28;20025;-90
2022/11/27 09:59:59;;;;;;;14.32;6.75;;;6.70;99.90;;;;;;5037386;28;20702;-91
2022/11/27 10:02:33;;;;;;;17.83;6.80;;;6.80;99.90;;;;;;5038766;28;20063;-90
2022/11/27 10:05:01;;;;;;;18.70;8.82;;;6.80;99.90;;;;;;5035749;28;20025;-89
2022/11/27 10:07:52;;;;;;;17.08;8.25;;;6.80;99.90;;;;;;5019725;28;20074;-89
2022/11/27 10:10:49;;;;;;;20.20;7.93;;;6.80;99.90;;;;;;5030683;28;20475;-90
2022/11/27 10:13:38;;;;;;;22.63;8.18;;;6.80;99.90;;;;;;5032724;28;20056;-90
2022/11/27 10:16:21;;;;;;;20.83;8.20;;;6.90;99.90;;;;;;5034471;28;20025;-90
2022/11/27 10:19:16;;;;;;;17.67;7.80;;;6.90;99.90;;;;;;5028531;28;20033;-90
2022/11/27 10:22:04;;;;;;;20.95;7.65;;;6.90;99.90;;;;;;5024040;28;20041;-90
2022/11/27 10:24:54;;;;;;;19.80;8.40;;;6.90;99.90;;;;;;5025133;28;20367;-90
2022/11/27 10:27:38;;;;;;;19.63;8.13;;;6.90;99.90;;;;;;5027428;28;20029;-90
2022/11/27 10:30:17;;;;;;;17.58;8.75;;;6.90;99.90;;;;;;5033054;28;20040;-89
2022/11/27 10:32:46;;;;;;;17.40;7.95;;;7.00;99.90;;;;;;5028443;28;20041;-90
2022/11/27 10:35:18;;;;;;;22.45;9.95;;;7.00;99.90;;;;;;5030519;28;20029;-90
2022/11/27 10:38:25;;;;;;;19.77;8.05;;;7.00;99.90;;;;;;5021912;28;20030;-89
2022/11/27 10:40:58;;;;;;;17.23;8.00;;;7.10;99.90;;;;;;5047336;28;20140;-91
2022/11/27 10:43:26;;;;;;;20.25;7.70;;;7.10;99.90;;;;;;5036225;28;20025;-92
2022/11/27 10:46:10;;;;;;;21.10;8.10;;;7.10;99.90;;;;;;5053882;28;20053;-91
2022/11/27 10:48:36;;;;;;;17.38;8.02;;;7.20;99.90;;;;;;5041036;28;20091;-91
2022/11/27 10:51:14;;;;;;;17.90;9.00;;;7.10;99.90;;;;;;5041113;28;20040;-92
2022/11/27 10:53:41;;;;;;;16.63;8.32;;;7.20;99.90;;;;;;5033007;28;20108;-92
2022/11/27 10:56:26;;;;;;;13.90;6.82;;;7.20;99.90;;;;;;5025848;28;20037;-91
2022/11/27 10:58:57;;;;;;;19.27;8.15;;;7.20;99.90;;;;;;5036451;28;20091;-90
2022/11/27 11:01:25;;;;;;;17.08;7.55;;;7.20;99.90;;;;;;5026206;28;20101;-91
2022/11/27 11:04:04;;;;;;;18.67;7.65;;;7.20;99.90;;;;;;5037053;28;20025;-92
2022/11/27 11:06:32;;;;;;;14.90;7.78;;;7.30;99.90;;;;;;5045840;28;20029;-91
2022/11/27 11:09:15;;;;;;;15.50;8.27;;;7.30;99.90;;;;;;5035423;28;20486;-92
2022/11/27 11:11:41;;;;;;;16.23;7.25;;;7.30;99.90;;;;;;5034161;28;20055;-90
2022/11/27 11:14:19;;;;;;;23.13;8.23;;;7.30;99.90;;;;;;5036884;28;20112;-92
2022/11/27 11:16:45;;;;;;;18.48;7.32;;;7.30;99.90;;;;;;5028971;28;20033;-92
2022/11/27 11:19:22;;;;;;;22.45;8.57;;;7.40;99.90;;;;;;5035844;28;20051;-91
2022/11/27 11:21:48;;;;;;;15.80;7.03;;;7.40;99.90;;;;;;5040239;28;20055;-90
2022/11/27 11:24:30;;;;;;;17.48;7.10;;;7.30;99.90;;;;;;5030886;28;20024;-91
2022/11/27 11:27:02;;;;;;;16.73;7.22;;;7.40;99.90;;;;;;5033050;28;20037;-91
2022/11/27 11:29:36;;;;;;;14.70;6.93;;;7.40;99.90;;;;;;5039210;28;20112;-91
2022/11/27 11:32:12;;;;;;;10.82;6.15;;;7.40;99.90;;;;;;5038366;28;20036;-91
2022/11/27 11:34:52;;;;;;;17.38;7.47;;;7.40;99.90;;;;;;5035380;28;20024;-93
2022/11/27 11:37:25;;;;;;;14.48;7.43;;;7.50;99.90;;;;;;5035996;28;20026;-90
2022/11/27 11:39:57;;;;;;;;;;;7.50;99.90;;;;;;5028860;28;20072;-93
2022/11/27 11:42:28;;;;;;;17.17;7.43;;;7.50;99.90;;;;;;5029086;28;19917;-92
2022/11/27 11:45:05;;;;;;;18.35;7.65;;;7.50;99.90;;;;;;5027271;28;20075;-90
2022/11/27 11:47:42;;;;;;;13.10;7.47;;;7.50;99.90;;;;;;5040383;28;20025;-90
2022/11/27 11:50:12;;;;;;;21.50;7.95;;;7.50;99.90;;;;;;5027870;28;20433;-90
2022/11/27 11:52:38;;;;;;;14.93;7.03;;;7.50;99.90;;;;;;5031357;28;20047;-91
2022/11/27 11:55:26;;;;;;;14.93;6.93;;;7.50;99.90;;;;;;5034853;28;20021;-91
2022/11/27 11:57:52;;;;;;;15.13;8.18;;;7.60;99.90;;;;;;5027553;28;20032;-91
2022/11/27 12:00:23;;;;;;;20.00;8.48;;;7.50;99.90;;;;;;5027675;28;20018;-91
2022/11/27 12:03:09;;;;;;;18.08;7.50;;;7.50;99.90;;;;;;5027371;28;20056;-91
2022/11/27 12:06:00;;;;;;;17.63;8.57;;;7.50;99.90;;;;;;5026684;28;20068;-90
2022/11/27 12:08:39;;;;;;;19.33;9.80;;;7.50;99.90;;;;;;5027367;28;20029;-91
2022/11/27 12:11:36;;;;;;;16.75;8.07;;;7.60;99.90;;;;;;5040232;28;20025;-92
2022/11/27 12:14:25;;;;;;;13.60;7.75;;;7.60;99.90;;;;;;5029713;28;20546;-90
2022/11/27 12:17:10;;;;;;;16.75;8.55;;;7.60;99.90;;;;;;5033628;28;20029;-92
2022/11/27 12:19:45;;;;;;;20.15;8.40;;;7.60;99.90;;;;;;5032295;28;20026;-91
2022/11/27 12:22:19;;;;;;;17.00;8.70;;;7.50;99.90;;;;;;5026163;28;20032;-92
2022/11/27 12:25:34;;;;;;;16.10;8.88;;;7.50;99.90;;;;;;5034755;28;20052;-90
2022/11/27 12:28:40;;;;;;;18.65;9.15;;;7.50;99.90;;;;;;5039877;28;20487;-89
2022/11/27 12:31:25;;;;;;;17.48;8.90;;;7.50;99.90;;;;;;5031902;28;20163;-90
2022/11/27 12:33:56;;;;;;;17.08;9.43;;;7.50;99.90;;;;;;5020485;28;20476;-91
2022/11/27 12:36:35;;;;;;;18.15;8.68;;;7.50;99.90;;;;;;5029420;28;20444;-91
2022/11/27 12:39:19;;;;;;;16.75;8.50;;;7.50;99.90;;;;;;5014028;28;20046;-90
2022/11/27 12:42:07;;;;;;;15.43;8.30;;;7.50;99.90;;;;;;5024939;28;20082;-91
2022/11/27 12:45:23;;;;;;;16.27;8.52;;;7.50;99.90;;;;;;5023323;28;20029;-90
2022/11/27 12:47:57;;;;;;;16.33;7.80;;;7.50;99.90;;;;;;4969001;28;20117;-90
2022/11/27 12:50:35;;;;;;;16.48;9.05;;;7.50;99.90;;;;;;5002539;28;20039;-91
2022/11/27 12:53:32;;;;;;;14.00;8.18;;;7.50;99.90;;;;;;5010352;28;20093;-90
2022/11/27 12:56:25;;;;;;;15.63;8.00;;;7.50;99.90;;;;;;5006662;28;20029;-91
2022/11/27 12:59:30;;;;;;;17.63;9.45;;;7.50;99.90;;;;;;5008163;28;20092;-91
2022/11/27 13:02:25;;;;;;;17.20;8.18;;;7.50;99.90;;;;;;5020544;28;20025;-91
2022/11/27 13:05:01;;;;;;;14.77;7.28;;;7.50;99.90;;;;;;4983016;28;20088;-92
2022/11/27 13:07:48;;;;;;;16.55;8.05;;;7.40;99.90;;;;;;5037687;28;20033;-90
2022/11/27 13:10:20;;;;;;;18.90;9.10;;;7.40;99.90;;;;;;5016447;28;20033;-91